KCBK/CBK METAR and TAF weather

Enter ICAO airport designator
Station Type Date Time Source
KCBK METAR 2018/10/21 03:35 UTC NOAA

KCBK 210335Z AUTO 14009KT 10SM CLR 08/01 A3034 RMK AO2


Station Type Date Time Source
KCBK Decoded METAR 2018/10/21 03:35 UTC NOAA

Station name not available
Oct 20, 2018 - 11:35 PM EDT / 2018.10.21 0335 UTC
Wind: from the SE (140 degrees) at 10 MPH (9 KT):0
Visibility: 10 mile(s):0
Sky conditions: clear
Temperature: 46 F (8 C)
Dew Point: 33 F (1 C)
Relative Humidity: 61%
Pressure (altimeter): 30.34 in. Hg (1027 hPa)
ob: KCBK 210335Z AUTO 14009KT 10SM CLR 08/01 A3034 RMK AO2
cycle: 3

Station Type Date Time Source
KCBK TAF UTC NOAA

Error!


Example: see airport list